sensor_id;sensor_type;location;lat;lon;timestamp;pressure;altitude;pressure_sealevel;temperature;humidity
47913;BME280;33676;51.006;17.180;2024-03-06T00:01:25;100516.94;;;6.45;83.98
47913;BME280;33676;51.006;17.180;2024-03-06T00:03:53;100518.04;;;6.44;83.90
47913;BME280;33676;51.006;17.180;2024-03-06T00:06:22;100516.67;;;6.44;84.04
47913;BME280;33676;51.006;17.180;2024-03-06T00:08:50;100517.02;;;6.43;84.02
47913;BME280;33676;51.006;17.180;2024-03-06T00:11:19;100520.41;;;6.42;83.99
47913;BME280;33676;51.006;17.180;2024-03-06T00:13:48;100517.69;;;6.41;83.91
47913;BME280;33676;51.006;17.180;2024-03-06T00:16:16;100520.65;;;6.41;84.04
47913;BME280;33676;51.006;17.180;2024-03-06T00:18:47;100518.08;;;6.40;84.00
47913;BME280;33676;51.006;17.180;2024-03-06T00:21:16;100523.45;;;6.40;84.17
47913;BME280;33676;51.006;17.180;2024-03-06T00:23:44;100523.59;;;6.41;84.23
47913;BME280;33676;51.006;17.180;2024-03-06T00:26:14;100523.29;;;6.40;84.31
47913;BME280;33676;51.006;17.180;2024-03-06T00:28:43;100523.83;;;6.40;84.19
47913;BME280;33676;51.006;17.180;2024-03-06T00:31:11;100525.55;;;6.40;84.28
47913;BME280;33676;51.006;17.180;2024-03-06T00:33:41;100523.99;;;6.40;84.32
47913;BME280;33676;51.006;17.180;2024-03-06T00:36:10;100525.66;;;6.38;84.28
47913;BME280;33676;51.006;17.180;2024-03-06T00:38:38;100522.75;;;6.37;84.39
47913;BME280;33676;51.006;17.180;2024-03-06T00:41:07;100527.60;;;6.37;84.58
47913;BME280;33676;51.006;17.180;2024-03-06T00:43:35;100523.52;;;6.36;84.45
47913;BME280;33676;51.006;17.180;2024-03-06T00:46:04;100522.88;;;6.35;84.56
47913;BME280;33676;51.006;17.180;2024-03-06T00:48:32;100523.09;;;6.34;84.63
47913;BME280;33676;51.006;17.180;2024-03-06T00:51:01;100523.08;;;6.35;84.62
47913;BME280;33676;51.006;17.180;2024-03-06T00:53:29;100525.02;;;6.34;84.65
47913;BME280;33676;51.006;17.180;2024-03-06T00:55:58;100528.92;;;6.32;84.59
47913;BME280;33676;51.006;17.180;2024-03-06T00:58:26;100526.61;;;6.30;84.60
47913;BME280;33676;51.006;17.180;2024-03-06T01:00:55;100525.73;;;6.30;84.68
47913;BME280;33676;51.006;17.180;2024-03-06T01:03:24;100527.70;;;6.29;84.67
47913;BME280;33676;51.006;17.180;2024-03-06T01:05:53;100528.84;;;6.28;84.78
47913;BME280;33676;51.006;17.180;2024-03-06T01:08:22;100530.48;;;6.26;84.68
47913;BME280;33676;51.006;17.180;2024-03-06T01:10:53;100535.14;;;6.24;84.65
47913;BME280;33676;51.006;17.180;2024-03-06T01:13:22;100539.80;;;6.22;84.66
47913;BME280;33676;51.006;17.180;2024-03-06T01:15:51;100539.91;;;6.20;84.70
47913;BME280;33676;51.006;17.180;2024-03-06T01:18:20;100543.58;;;6.19;84.71
47913;BME280;33676;51.006;17.180;2024-03-06T01:20:49;100548.71;;;6.18;84.73
47913;BME280;33676;51.006;17.180;2024-03-06T01:23:18;100550.66;;;6.17;84.78
47913;BME280;33676;51.006;17.180;2024-03-06T01:25:46;100549.14;;;6.16;84.88
47913;BME280;33676;51.006;17.180;2024-03-06T01:28:16;100543.78;;;6.16;85.02
47913;BME280;33676;51.006;17.180;2024-03-06T01:30:45;100546.46;;;6.14;84.99
47913;BME280;33676;51.006;17.180;2024-03-06T01:33:13;100547.08;;;6.12;84.86
47913;BME280;33676;51.006;17.180;2024-03-06T01:35:43;100550.79;;;6.11;84.93
47913;BME280;33676;51.006;17.180;2024-03-06T01:38:12;100553.89;;;6.12;85.10
47913;BME280;33676;51.006;17.180;2024-03-06T01:40:44;100555.77;;;6.12;85.18
47913;BME280;33676;51.006;17.180;2024-03-06T01:43:22;100557.67;;;6.12;85.21
47913;BME280;33676;51.006;17.180;2024-03-06T01:45:51;100558.67;;;6.13;85.32
47913;BME280;33676;51.006;17.180;2024-03-06T01:48:26;100560.25;;;6.12;85.25
47913;BME280;33676;51.006;17.180;2024-03-06T01:50:57;100559.04;;;6.13;85.27
47913;BME280;33676;51.006;17.180;2024-03-06T01:53:29;100559.73;;;6.13;85.41
47913;BME280;33676;51.006;17.180;2024-03-06T01:56:00;100562.96;;;6.14;85.42
47913;BME280;33676;51.006;17.180;2024-03-06T01:58:29;100565.59;;;6.14;85.35
47913;BME280;33676;51.006;17.180;2024-03-06T02:00:59;100565.10;;;6.13;85.39
47913;BME280;33676;51.006;17.180;2024-03-06T02:03:28;100562.86;;;6.12;85.46
47913;BME280;33676;51.006;17.180;2024-03-06T02:06:00;100562.02;;;6.12;85.45
47913;BME280;33676;51.006;17.180;2024-03-06T02:08:30;100558.02;;;6.12;85.48
47913;BME280;33676;51.006;17.180;2024-03-06T02:11:00;100561.86;;;6.12;85.39
47913;BME280;33676;51.006;17.180;2024-03-06T02:13:33;100561.32;;;6.12;85.57
47913;BME280;33676;51.006;17.180;2024-03-06T02:16:02;100563.25;;;6.12;85.53
47913;BME280;33676;51.006;17.180;2024-03-06T02:18:30;100559.86;;;6.11;85.54
47913;BME280;33676;51.006;17.180;2024-03-06T02:20:59;100558.55;;;6.09;85.56
47913;BME280;33676;51.006;17.180;2024-03-06T02:23:28;100556.67;;;6.08;85.62
47913;BME280;33676;51.006;17.180;2024-03-06T02:25:56;100557.38;;;6.08;85.71
47913;BME280;33676;51.006;17.180;2024-03-06T02:28:25;100558.28;;;6.08;85.69
47913;BME280;33676;51.006;17.180;2024-03-06T02:30:54;100558.17;;;6.07;85.72
47913;BME280;33676;51.006;17.180;2024-03-06T02:33:22;100559.30;;;6.05;85.66
47913;BME280;33676;51.006;17.180;2024-03-06T02:35:51;100558.34;;;6.03;85.73
47913;BME280;33676;51.006;17.180;2024-03-06T02:38:19;100558.23;;;6.02;85.76
47913;BME280;33676;51.006;17.180;2024-03-06T02:40:48;100556.88;;;6.02;85.86
47913;BME280;33676;51.006;17.180;2024-03-06T02:43:16;100555.56;;;6.00;85.96
47913;BME280;33676;51.006;17.180;2024-03-06T02:45:45;100558.17;;;5.97;85.88
47913;BME280;33676;51.006;17.180;2024-03-06T02:48:13;100558.14;;;5.94;85.80
47913;BME280;33676;51.006;17.180;2024-03-06T02:50:43;100558.70;;;5.90;85.84
47913;BME280;33676;51.006;17.180;2024-03-06T02:53:12;100557.85;;;5.86;85.70
47913;BME280;33676;51.006;17.180;2024-03-06T02:55:41;100561.11;;;5.80;85.63
47913;BME280;33676;51.006;17.180;2024-03-06T02:58:11;100561.98;;;5.74;85.50
47913;BME280;33676;51.006;17.180;2024-03-06T03:00:40;100566.64;;;5.68;85.47
47913;BME280;33676;51.006;17.180;2024-03-06T03:03:11;100572.84;;;5.62;85.52
47913;BME280;33676;51.006;17.180;2024-03-06T03:05:43;100574.70;;;5.57;85.39
47913;BME280;33676;51.006;17.180;2024-03-06T03:08:12;100576.52;;;5.52;85.44
47913;BME280;33676;51.006;17.180;2024-03-06T03:10:41;100572.20;;;5.48;85.50
47913;BME280;33676;51.006;17.180;2024-03-06T03:13:09;100571.77;;;5.43;85.52
47913;BME280;33676;51.006;17.180;2024-03-06T03:15:38;100575.83;;;5.39;85.41
47913;BME280;33676;51.006;17.180;2024-03-06T03:18:09;100574.75;;;5.32;85.46
47913;BME280;33676;51.006;17.180;2024-03-06T03:20:38;100578.89;;;5.26;85.45
47913;BME280;33676;51.006;17.180;2024-03-06T03:23:07;100579.73;;;5.20;85.43
47913;BME280;33676;51.006;17.180;2024-03-06T03:25:41;100579.34;;;5.14;85.26
47913;BME280;33676;51.006;17.180;2024-03-06T03:28:09;100581.61;;;5.07;85.38
47913;BME280;33676;51.006;17.180;2024-03-06T03:30:38;100583.84;;;5.01;85.34
47913;BME280;33676;51.006;17.180;2024-03-06T03:33:07;100584.51;;;4.94;85.44
47913;BME280;33676;51.006;17.180;2024-03-06T03:35:36;100586.69;;;4.89;85.47
47913;BME280;33676;51.006;17.180;2024-03-06T03:38:04;100593.16;;;4.84;85.62
47913;BME280;33676;51.006;17.180;2024-03-06T03:40:33;100597.28;;;4.78;85.37
47913;BME280;33676;51.006;17.180;2024-03-06T03:43:03;100594.81;;;4.72;85.40
47913;BME280;33676;51.006;17.180;2024-03-06T03:45:35;100598.13;;;4.64;85.50
47913;BME280;33676;51.006;17.180;2024-03-06T03:48:05;100600.81;;;4.58;85.42
47913;BME280;33676;51.006;17.180;2024-03-06T03:50:34;100603.51;;;4.53;85.55
47913;BME280;33676;51.006;17.180;2024-03-06T03:53:02;100607.04;;;4.48;85.58
47913;BME280;33676;51.006;17.180;2024-03-06T03:55:33;100611.42;;;4.43;85.65
47913;BME280;33676;51.006;17.180;2024-03-06T03:58:01;100608.63;;;4.36;85.59
47913;BME280;33676;51.006;17.180;2024-03-06T04:00:30;100609.61;;;4.30;85.64
47913;BME280;33676;51.006;17.180;2024-03-06T04:02:59;100610.05;;;4.24;85.73
47913;BME280;33676;51.006;17.180;2024-03-06T04:05:31;100610.61;;;4.20;85.92
47913;BME280;33676;51.006;17.180;2024-03-06T04:08:00;100613.25;;;4.16;85.95
47913;BME280;33676;51.006;17.180;2024-03-06T04:10:29;100615.70;;;4.11;85.85
47913;BME280;33676;51.006;17.180;2024-03-06T04:12:57;100616.77;;;4.07;85.99
47913;BME280;33676;51.006;17.180;2024-03-06T04:15:29;100619.94;;;4.02;85.93
47913;BME280;33676;51.006;17.180;2024-03-06T04:17:58;100619.11;;;3.97;85.86
47913;BME280;33676;51.006;17.180;2024-03-06T04:20:26;100622.46;;;3.92;85.91
47913;BME280;33676;51.006;17.180;2024-03-06T04:22:55;100620.87;;;3.88;86.26
47913;BME280;33676;51.006;17.180;2024-03-06T04:25:24;100623.41;;;3.86;86.29
47913;BME280;33676;51.006;17.180;2024-03-06T04:27:54;100625.25;;;3.83;86.43
47913;BME280;33676;51.006;17.180;2024-03-06T04:30:23;100629.49;;;3.81;86.53
47913;BME280;33676;51.006;17.180;2024-03-06T04:32:52;100630.78;;;3.80;86.63
47913;BME280;33676;51.006;17.180;2024-03-06T04:35:21;100632.58;;;3.78;86.66
47913;BME280;33676;51.006;17.180;2024-03-06T04:37:50;100635.75;;;3.77;86.82
47913;BME280;33676;51.006;17.180;2024-03-06T04:41:39;100640.17;;;3.78;86.95
47913;BME280;33676;51.006;17.180;2024-03-06T04:44:08;100640.82;;;3.75;87.10
47913;BME280;33676;51.006;17.180;2024-03-06T04:46:39;100643.23;;;3.76;87.20
47913;BME280;33676;51.006;17.180;2024-03-06T04:49:07;100643.96;;;3.75;87.19
47913;BME280;33676;51.006;17.180;2024-03-06T04:51:36;100647.61;;;3.75;87.21
47913;BME280;33676;51.006;17.180;2024-03-06T04:54:05;100651.06;;;3.74;87.28
47913;BME280;33676;51.006;17.180;2024-03-06T04:56:34;100650.51;;;3.75;87.53
47913;BME280;33676;51.006;17.180;2024-03-06T04:59:04;100653.05;;;3.76;87.44
47913;BME280;33676;51.006;17.180;2024-03-06T05:01:34;100653.91;;;3.76;87.50
47913;BME280;33676;51.006;17.180;2024-03-06T05:04:04;100657.71;;;3.76;87.68
47913;BME280;33676;51.006;17.180;2024-03-06T05:06:52;100657.67;;;3.78;87.65
47913;BME280;33676;51.006;17.180;2024-03-06T05:09:39;100659.87;;;3.79;87.81
47913;BME280;33676;51.006;17.180;2024-03-06T05:12:35;100661.06;;;3.79;87.78
47913;BME280;33676;51.006;17.180;2024-03-06T05:15:22;100662.77;;;3.80;87.81
47913;BME280;33676;51.006;17.180;2024-03-06T05:18:08;100666.39;;;3.80;87.80
47913;BME280;33676;51.006;17.180;2024-03-06T05:20:55;100667.63;;;3.79;87.67
47913;BME280;33676;51.006;17.180;2024-03-06T05:23:41;100669.91;;;3.79;87.61
47913;BME280;33676;51.006;17.180;2024-03-06T05:26:27;100670.36;;;3.76;87.63
47913;BME280;33676;51.006;17.180;2024-03-06T05:29:13;100672.85;;;3.74;87.82
47913;BME280;33676;51.006;17.180;2024-03-06T05:31:59;100672.71;;;3.74;87.71
47913;BME280;33676;51.006;17.180;2024-03-06T05:34:45;100672.20;;;3.74;87.93
47913;BME280;33676;51.006;17.180;2024-03-06T05:37:31;100675.58;;;3.72;87.77
47913;BME280;33676;51.006;17.180;2024-03-06T05:40:17;100677.89;;;3.70;87.62
47913;BME280;33676;51.006;17.180;2024-03-06T05:43:04;100675.66;;;3.65;87.50
47913;BME280;33676;51.006;17.180;2024-03-06T05:45:51;100678.32;;;3.60;87.25
47913;BME280;33676;51.006;17.180;2024-03-06T05:48:41;100679.34;;;3.53;87.09
47913;BME280;33676;51.006;17.180;2024-03-06T05:52:02;100681.95;;;3.48;87.19
47913;BME280;33676;51.006;17.180;2024-03-06T05:55:22;100681.85;;;3.42;87.35
47913;BME280;33676;51.006;17.180;2024-03-06T05:58:11;100687.75;;;3.38;87.26
47913;BME280;33676;51.006;17.180;2024-03-06T06:00:45;100686.67;;;3.34;87.17
47913;BME280;33676;51.006;17.180;2024-03-06T06:03:15;100687.69;;;3.30;87.30
47913;BME280;33676;51.006;17.180;2024-03-06T06:05:45;100687.70;;;3.26;87.19
47913;BME280;33676;51.006;17.180;2024-03-06T06:08:18;100695.99;;;3.22;87.04
47913;BME280;33676;51.006;17.180;2024-03-06T06:13:53;100704.67;;;3.13;87.02
47913;BME280;33676;51.006;17.180;2024-03-06T06:16:22;100703.65;;;3.09;86.75
47913;BME280;33676;51.006;17.180;2024-03-06T06:18:51;100708.92;;;3.06;86.88
47913;BME280;33676;51.006;17.180;2024-03-06T06:21:53;100712.60;;;3.05;87.13
47913;BME280;33676;51.006;17.180;2024-03-06T06:24:40;100716.94;;;3.05;87.27
47913;BME280;33676;51.006;17.180;2024-03-06T06:27:31;100720.34;;;3.06;87.41
47913;BME280;33676;51.006;17.180;2024-03-06T06:30:07;100723.80;;;3.06;87.42
47913;BME280;33676;51.006;17.180;2024-03-06T06:33:13;100723.87;;;3.04;87.53
47913;BME280;33676;51.006;17.180;2024-03-06T06:35:42;100725.95;;;3.04;87.63
47913;BME280;33676;51.006;17.180;2024-03-06T06:38:11;100729.22;;;3.04;87.35
47913;BME280;33676;51.006;17.180;2024-03-06T06:40:40;100726.92;;;3.06;87.59
47913;BME280;33676;51.006;17.180;2024-03-06T06:43:29;100727.83;;;3.09;87.82
47913;BME280;33676;51.006;17.180;2024-03-06T06:46:00;100730.98;;;3.12;88.13
47913;BME280;33676;51.006;17.180;2024-03-06T06:48:33;100732.87;;;3.16;88.29
47913;BME280;33676;51.006;17.180;2024-03-06T06:51:03;100736.33;;;3.20;88.32
47913;BME280;33676;51.006;17.180;2024-03-06T06:53:32;100734.91;;;3.25;88.49
47913;BME280;33676;51.006;17.180;2024-03-06T06:56:04;100733.02;;;3.29;88.43
47913;BME280;33676;51.006;17.180;2024-03-06T06:58:39;100733.80;;;3.36;88.73
47913;BME280;33676;51.006;17.180;2024-03-06T07:01:11;100736.70;;;3.41;88.77
47913;BME280;33676;51.006;17.180;2024-03-06T07:03:40;100739.29;;;3.45;88.71
47913;BME280;33676;51.006;17.180;2024-03-06T07:06:08;100741.16;;;3.50;88.85
47913;BME280;33676;51.006;17.180;2024-03-06T07:08:37;100739.56;;;3.55;88.86
47913;BME280;33676;51.006;17.180;2024-03-06T07:11:05;100738.86;;;3.59;88.88
47913;BME280;33676;51.006;17.180;2024-03-06T07:13:34;100739.30;;;3.65;89.12
47913;BME280;33676;51.006;17.180;2024-03-06T07:16:03;100737.99;;;3.71;89.13
47913;BME280;33676;51.006;17.180;2024-03-06T07:18:32;100740.65;;;3.78;89.38
47913;BME280;33676;51.006;17.180;2024-03-06T07:21:01;100745.52;;;3.86;89.47
47913;BME280;33676;51.006;17.180;2024-03-06T07:23:29;100746.11;;;3.92;89.63
47913;BME280;33676;51.006;17.180;2024-03-06T07:25:58;100745.58;;;4.01;89.69
47913;BME280;33676;51.006;17.180;2024-03-06T07:28:27;100746.08;;;4.09;89.84
47913;BME280;33676;51.006;17.180;2024-03-06T07:30:56;100753.45;;;4.17;90.15
47913;BME280;33676;51.006;17.180;2024-03-06T07:33:25;100756.02;;;4.26;90.15
47913;BME280;33676;51.006;17.180;2024-03-06T07:35:53;100755.27;;;4.35;90.20
47913;BME280;33676;51.006;17.180;2024-03-06T07:38:23;100753.67;;;4.44;90.21
47913;BME280;33676;51.006;17.180;2024-03-06T07:40:51;100754.73;;;4.51;90.15
47913;BME280;33676;51.006;17.180;2024-03-06T07:43:20;100757.95;;;4.60;90.34
47913;BME280;33676;51.006;17.180;2024-03-06T07:45:48;100760.80;;;4.69;90.59
47913;BME280;33676;51.006;17.180;2024-03-06T07:48:18;100758.77;;;4.79;90.61
47913;BME280;33676;51.006;17.180;2024-03-06T07:50:48;100757.86;;;4.88;90.82
47913;BME280;33676;51.006;17.180;2024-03-06T07:53:17;100756.70;;;4.98;90.67
47913;BME280;33676;51.006;17.180;2024-03-06T07:55:45;100759.48;;;5.09;90.84
47913;BME280;33676;51.006;17.180;2024-03-06T07:58:12;100757.48;;;5.18;90.85
47913;BME280;33676;51.006;17.180;2024-03-06T08:00:40;100758.77;;;5.26;90.76
47913;BME280;33676;51.006;17.180;2024-03-06T08:03:08;100761.08;;;5.36;90.81
47913;BME280;33676;51.006;17.180;2024-03-06T08:05:35;100760.48;;;5.45;90.89
47913;BME280;33676;51.006;17.180;2024-03-06T08:08:04;100759.09;;;5.52;90.60
47913;BME280;33676;51.006;17.180;2024-03-06T08:10:32;100762.30;;;5.60;90.69
47913;BME280;33676;51.006;17.180;2024-03-06T08:13:01;100763.24;;;5.70;90.75
47913;BME280;33676;51.006;17.180;2024-03-06T08:15:28;100765.54;;;5.79;90.80
47913;BME280;33676;51.006;17.180;2024-03-06T08:17:56;100767.13;;;5.85;90.41
47913;BME280;33676;51.006;17.180;2024-03-06T08:20:24;100765.76;;;5.92;90.63
47913;BME280;33676;51.006;17.180;2024-03-06T08:22:52;100769.73;;;6.03;90.70
47913;BME280;33676;51.006;17.180;2024-03-06T08:25:19;100762.09;;;6.13;90.81
47913;BME280;33676;51.006;17.180;2024-03-06T08:27:47;100765.17;;;6.23;90.69
47913;BME280;33676;51.006;17.180;2024-03-06T08:30:16;100767.77;;;6.37;90.98
47913;BME280;33676;51.006;17.180;2024-03-06T08:32:44;100768.71;;;6.51;91.15
47913;BME280;33676;51.006;17.180;2024-03-06T08:35:13;100768.41;;;6.67;91.37
47913;BME280;33676;51.006;17.180;2024-03-06T08:37:45;100763.88;;;6.83;91.46
47913;BME280;33676;51.006;17.180;2024-03-06T08:40:13;100766.11;;;6.99;91.73
47913;BME280;33676;51.006;17.180;2024-03-06T08:42:46;100768.00;;;7.15;91.77
47913;BME280;33676;51.006;17.180;2024-03-06T08:45:17;100766.30;;;7.30;91.43
47913;BME280;33676;51.006;17.180;2024-03-06T08:47:47;100766.54;;;7.41;90.88
47913;BME280;33676;51.006;17.180;2024-03-06T08:50:16;100767.77;;;7.50;90.64
47913;BME280;33676;51.006;17.180;2024-03-06T08:52:45;100765.08;;;7.63;90.77
47913;BME280;33676;51.006;17.180;2024-03-06T08:55:13;100773.52;;;7.79;91.01
47913;BME280;33676;51.006;17.180;2024-03-06T08:57:41;100770.16;;;7.94;90.99
47913;BME280;33676;51.006;17.180;2024-03-06T09:00:10;100773.27;;;8.10;90.92
47913;BME280;33676;51.006;17.180;2024-03-06T09:12:13;100782.22;;;9.04;90.67
47913;BME280;33676;51.006;17.180;2024-03-06T09:14:42;100779.54;;;9.16;89.70
47913;BME280;33676;51.006;17.180;2024-03-06T09:17:11;100779.40;;;9.21;89.21
47913;BME280;33676;51.006;17.180;2024-03-06T09:19:42;100779.23;;;9.35;89.01
47913;BME280;33676;51.006;17.180;2024-03-06T09:22:30;100776.77;;;9.38;88.28
47913;BME280;33676;51.006;17.180;2024-03-06T09:24:57;100774.85;;;9.35;87.79
47913;BME280;33676;51.006;17.180;2024-03-06T09:27:25;100771.85;;;9.43;87.88
47913;BME280;33676;51.006;17.180;2024-03-06T09:29:54;100765.38;;;9.65;88.10
47913;BME280;33676;51.006;17.180;2024-03-06T09:32:23;100767.85;;;9.90;88.22
47913;BME280;33676;51.006;17.180;2024-03-06T09:34:54;100772.00;;;10.14;88.04
47913;BME280;33676;51.006;17.180;2024-03-06T09:37:21;100770.31;;;10.21;88.18
47913;BME280;33676;51.006;17.180;2024-03-06T09:39:49;100776.37;;;10.22;87.69
47913;BME280;33676;51.006;17.180;2024-03-06T09:42:17;100777.60;;;10.32;87.50
47913;BME280;33676;51.006;17.180;2024-03-06T09:44:45;100772.45;;;10.63;87.81
47913;BME280;33676;51.006;17.180;2024-03-06T09:47:14;100771.27;;;10.97;88.12
47913;BME280;33676;51.006;17.180;2024-03-06T09:49:42;100773.90;;;11.25;88.03
47913;BME280;33676;51.006;17.180;2024-03-06T09:52:10;100775.86;;;11.53;87.61
47913;BME280;33676;51.006;17.180;2024-03-06T09:54:38;100773.54;;;11.80;87.54
47913;BME280;33676;51.006;17.180;2024-03-06T09:57:07;100775.08;;;12.10;87.68
47913;BME280;33676;51.006;17.180;2024-03-06T09:59:35;100775.97;;;12.44;87.99
47913;BME280;33676;51.006;17.180;2024-03-06T10:02:13;100780.45;;;12.74;87.23
47913;BME280;33676;51.006;17.180;2024-03-06T10:04:46;100780.83;;;12.91;85.80
47913;BME280;33676;51.006;17.180;2024-03-06T10:07:14;100784.89;;;13.06;85.49
47913;BME280;33676;51.006;17.180;2024-03-06T10:09:42;100786.08;;;13.24;85.27
47913;BME280;33676;51.006;17.180;2024-03-06T10:12:12;100783.87;;;13.30;84.09
47913;BME280;33676;51.006;17.180;2024-03-06T10:14:52;100785.85;;;13.40;83.74
47913;BME280;33676;51.006;17.180;2024-03-06T10:17:21;100782.06;;;13.60;83.56
47913;BME280;33676;51.006;17.180;2024-03-06T10:19:55;100783.02;;;13.63;83.32
47913;BME280;33676;51.006;17.180;2024-03-06T10:22:26;100782.72;;;13.56;82.70
47913;BME280;33676;51.006;17.180;2024-03-06T10:24:57;100779.99;;;13.55;82.85
47913;BME280;33676;51.006;17.180;2024-03-06T10:27:25;100779.42;;;13.60;82.30
47913;BME280;33676;51.006;17.180;2024-03-06T10:30:04;100778.31;;;13.61;81.61
47913;BME280;33676;51.006;17.180;2024-03-06T10:32:33;100782.44;;;13.60;80.77
47913;BME280;33676;51.006;17.180;2024-03-06T10:35:01;100779.19;;;13.46;79.59
47913;BME280;33676;51.006;17.180;2024-03-06T10:37:29;100778.96;;;13.30;79.17
47913;BME280;33676;51.006;17.180;2024-03-06T10:39:58;100785.11;;;13.12;79.22
47913;BME280;33676;51.006;17.180;2024-03-06T10:42:34;100785.31;;;12.96;78.85
47913;BME280;33676;51.006;17.180;2024-03-06T10:45:04;100784.86;;;12.78;78.58
47913;BME280;33676;51.006;17.180;2024-03-06T10:47:33;100781.30;;;12.59;78.31
47913;BME280;33676;51.006;17.180;2024-03-06T10:50:02;100781.38;;;12.46;78.13
47913;BME280;33676;51.006;17.180;2024-03-06T10:52:33;100785.11;;;12.35;78.03
47913;BME280;33676;51.006;17.180;2024-03-06T10:55:01;100787.37;;;12.21;77.57
47913;BME280;33676;51.006;17.180;2024-03-06T10:57:29;100785.63;;;12.03;77.08
47913;BME280;33676;51.006;17.180;2024-03-06T10:59:57;100782.52;;;11.84;76.80
47913;BME280;33676;51.006;17.180;2024-03-06T11:02:31;100783.59;;;11.74;76.99
47913;BME280;33676;51.006;17.180;2024-03-06T11:04:59;100784.03;;;11.68;77.18
47913;BME280;33676;51.006;17.180;2024-03-06T11:07:28;100786.27;;;11.66;77.39
47913;BME280;33676;51.006;17.180;2024-03-06T11:09:58;100792.83;;;11.65;77.28
47913;BME280;33676;51.006;17.180;2024-03-06T11:12:38;100792.55;;;11.57;77.00
47913;BME280;33676;51.006;17.180;2024-03-06T11:15:16;100789.63;;;11.52;77.24
47913;BME280;33676;51.006;17.180;2024-03-06T11:17:46;100786.65;;;11.42;76.82
47913;BME280;33676;51.006;17.180;2024-03-06T11:20:18;100787.71;;;11.33;77.03
47913;BME280;33676;51.006;17.180;2024-03-06T11:28:27;100788.55;;;10.92;76.43
47913;BME280;33676;51.006;17.180;2024-03-06T11:36:22;100785.33;;;10.93;77.37
47913;BME280;33676;51.006;17.180;2024-03-06T11:41:29;100780.56;;;10.99;77.66
47913;BME280;33676;51.006;17.180;2024-03-06T11:44:00;100777.59;;;11.06;77.68
47913;BME280;33676;51.006;17.180;2024-03-06T11:46:44;100776.42;;;11.12;77.67
47913;BME280;33676;51.006;17.180;2024-03-06T11:49:26;100779.92;;;11.22;77.91
47913;BME280;33676;51.006;17.180;2024-03-06T11:52:00;100774.52;;;11.29;77.65
47913;BME280;33676;51.006;17.180;2024-03-06T11:54:30;100777.84;;;11.26;76.89
47913;BME280;33676;51.006;17.180;2024-03-06T11:57:00;100773.16;;;11.26;76.84
47913;BME280;33676;51.006;17.180;2024-03-06T11:59:32;100775.51;;;11.35;76.85
47913;BME280;33676;51.006;17.180;2024-03-06T12:02:05;100770.64;;;11.41;76.21
47913;BME280;33676;51.006;17.180;2024-03-06T12:04:35;100772.19;;;11.44;75.87
47913;BME280;33676;51.006;17.180;2024-03-06T12:07:06;100768.23;;;11.47;75.68
47913;BME280;33676;51.006;17.180;2024-03-06T12:09:38;100764.54;;;11.59;76.00
47913;BME280;33676;51.006;17.180;2024-03-06T12:12:10;100766.84;;;11.92;76.61
47913;BME280;33676;51.006;17.180;2024-03-06T12:14:39;100765.12;;;12.28;77.05
47913;BME280;33676;51.006;17.180;2024-03-06T12:17:13;100763.59;;;12.76;77.47
47913;BME280;33676;51.006;17.180;2024-03-06T12:19:45;100767.98;;;13.00;76.50
47913;BME280;33676;51.006;17.180;2024-03-06T12:22:13;100767.16;;;13.00;76.07
47913;BME280;33676;51.006;17.180;2024-03-06T12:24:43;100764.02;;;13.06;76.02
47913;BME280;33676;51.006;17.180;2024-03-06T12:27:11;100766.89;;;13.05;75.61
47913;BME280;33676;51.006;17.180;2024-03-06T12:29:40;100766.46;;;12.93;74.66
47913;BME280;33676;51.006;17.180;2024-03-06T12:32:17;100767.79;;;12.70;73.83
47913;BME280;33676;51.006;17.180;2024-03-06T12:34:58;100767.02;;;12.40;73.04
47913;BME280;33676;51.006;17.180;2024-03-06T12:37:33;100773.16;;;12.10;72.94
47913;BME280;33676;51.006;17.180;2024-03-06T12:40:03;100771.54;;;11.92;73.21
47913;BME280;33676;51.006;17.180;2024-03-06T12:42:40;100768.02;;;11.79;73.59
47913;BME280;33676;51.006;17.180;2024-03-06T12:45:09;100767.96;;;11.68;73.77
47913;BME280;33676;51.006;17.180;2024-03-06T12:47:37;100772.74;;;11.60;74.04
47913;BME280;33676;51.006;17.180;2024-03-06T12:50:06;100775.36;;;11.50;74.25
47913;BME280;33676;51.006;17.180;2024-03-06T12:52:35;100770.74;;;11.37;74.16
47913;BME280;33676;51.006;17.180;2024-03-06T12:55:03;100774.73;;;11.26;74.18
47913;BME280;33676;51.006;17.180;2024-03-06T12:57:34;100777.49;;;11.12;74.00
47913;BME280;33676;51.006;17.180;2024-03-06T13:00:02;100779.05;;;10.93;73.81
47913;BME280;33676;51.006;17.180;2024-03-06T13:02:30;100778.28;;;10.79;73.91
47913;BME280;33676;51.006;17.180;2024-03-06T13:04:58;100777.20;;;10.68;73.99
47913;BME280;33676;51.006;17.180;2024-03-06T13:07:25;100773.83;;;10.58;74.11
47913;BME280;33676;51.006;17.180;2024-03-06T13:09:54;100774.32;;;10.49;74.23
47913;BME280;33676;51.006;17.180;2024-03-06T13:12:22;100774.92;;;10.38;74.28
47913;BME280;33676;51.006;17.180;2024-03-06T13:14:49;100775.29;;;10.30;74.43
47913;BME280;33676;51.006;17.180;2024-03-06T13:17:17;100777.58;;;10.22;74.50
47913;BME280;33676;51.006;17.180;2024-03-06T13:19:45;100780.40;;;10.14;74.36
47913;BME280;33676;51.006;17.180;2024-03-06T13:22:14;100780.15;;;9.99;74.10
47913;BME280;33676;51.006;17.180;2024-03-06T13:24:42;100781.09;;;9.83;73.94
47913;BME280;33676;51.006;17.180;2024-03-06T13:27:12;100779.19;;;9.70;74.11
47913;BME280;33676;51.006;17.180;2024-03-06T13:29:40;100781.39;;;9.57;74.14
47913;BME280;33676;51.006;17.180;2024-03-06T13:32:08;100779.27;;;9.47;74.26
47913;BME280;33676;51.006;17.180;2024-03-06T13:34:36;100777.00;;;9.42;74.56
47913;BME280;33676;51.006;17.180;2024-03-06T13:37:03;100777.68;;;9.35;74.45